Time;durP1;ratioP1;P1;durP2;ratioP2;P2;SDS_P1;SDS_P2;PMS_P1;PMS_P2;Temp;Humidity;BMP_temperature;BMP_pressure;BME280_temperature;BME280_humidity;BME280_pressure;Samples;Min_cycle;Max_cycle;Signal;HPM_P1;HPM_P2
2022/09/05 00:02:34;;;;;;;8.77;4.18;;;;;;;19.67;58.02;101765.47;5056090;28;20040;-81
2022/09/05 00:05:22;;;;;;;7.20;4.60;;;;;;;19.58;58.43;101780.75;5038781;28;20087;-81
2022/09/05 00:08:15;;;;;;;7.40;3.97;;;;;;;19.46;57.84;101771.94;5055698;28;20029;-81
2022/09/05 00:10:59;;;;;;;7.13;4.53;;;;;;;19.44;58.13;101771.06;5055921;28;20024;-81
2022/09/05 00:13:29;;;;;;;8.18;4.30;;;;;;;19.41;58.92;101762.19;5056646;28;20036;-81
2022/09/05 00:16:13;;;;;;;7.13;4.03;;;;;;;19.54;57.60;101769.16;5056029;28;20029;-81
2022/09/05 00:18:47;;;;;;;9.35;4.53;;;;;;;19.64;58.11;101768.19;5055968;28;20091;-80
2022/09/05 00:21:45;;;;;;;8.15;4.78;;;;;;;19.73;56.87;101767.19;5055570;28;20029;-80
2022/09/05 00:24:21;;;;;;;6.75;4.75;;;;;;;19.73;57.76;101767.19;5055112;28;20029;-81
2022/09/05 00:27:05;;;;;;;12.38;5.13;;;;;;;19.73;57.83;101764.50;5055585;28;20124;-80
2022/09/05 00:29:44;;;;;;;7.18;4.70;;;;;;;19.67;57.08;101770.84;5055828;28;20036;-80
2022/09/05 00:32:19;;;;;;;10.30;5.10;;;;;;;19.53;57.73;101764.72;5055913;28;20040;-80
2022/09/05 00:34:56;;;;;;;9.75;5.55;;;;;;;19.24;58.25;101776.63;5055101;28;20033;-80
2022/09/05 00:37:30;;;;;;;11.13;5.70;;;;;;;19.05;58.58;101774.13;5055592;28;20390;-80
2022/09/05 00:40:13;;;;;;;8.77;5.60;;;;;;;19.10;58.10;101764.25;5055348;28;20020;-80
2022/09/05 00:42:39;;;;;;;8.77;5.03;;;;;;;19.11;58.86;101766.94;5038953;28;20489;-80
2022/09/05 00:45:08;;;;;;;12.23;5.68;;;;;;;19.20;58.32;101766.84;5037618;28;20115;-81
2022/09/05 00:47:46;;;;;;;9.40;5.63;;;;;;;19.30;57.92;101767.63;5055060;28;20033;-80
2022/09/05 00:50:56;;;;;;;9.13;5.95;;;;;;;19.35;56.94;101760.44;5055378;28;20474;-80
2022/09/05 00:53:44;;;;;;;11.57;6.22;;;;;;;19.38;56.91;101756.84;5043883;28;20490;-80
2022/09/05 00:56:24;;;;;;;15.05;7.20;;;;;;;19.34;58.15;101753.28;5055220;28;20041;-80
2022/09/05 00:59:23;;;;;;;11.85;5.82;;;;;;;19.33;57.32;101756.00;5055219;28;20427;-81
2022/09/05 01:02:27;;;;;;;15.25;6.60;;;;;;;19.37;56.75;101755.94;5055523;28;20059;-81
2022/09/05 01:04:56;;;;;;;9.20;6.53;;;;;;;19.39;57.33;101762.16;5033914;28;20040;-80
2022/09/05 01:07:27;;;;;;;9.75;6.00;;;;;;;19.31;57.71;101764.03;5054422;28;20051;-80
2022/09/05 01:10:23;;;;;;;12.43;6.40;;;;;;;19.36;56.39;101762.22;5055000;28;20033;-80
2022/09/05 01:13:11;;;;;;;10.73;6.40;;;;;;;19.17;57.92;101756.16;5037412;28;20070;-80
2022/09/05 01:16:05;;;;;;;17.40;7.20;;;;;;;19.23;57.69;101750.75;5054913;28;20124;-81
2022/09/05 01:18:41;;;;;;;15.30;8.13;;;;;;;19.14;57.78;101745.50;5054327;28;20032;-81
2022/09/05 01:21:17;;;;;;;16.17;8.07;;;;;;;19.06;57.82;101752.72;5054534;28;20021;-81
2022/09/05 01:23:51;;;;;;;15.00;8.10;;;;;;;18.89;59.19;101749.31;5054397;28;20025;-80
2022/09/05 01:26:41;;;;;;;15.52;8.52;;;;;;;18.75;59.90;101754.75;5054389;28;20036;-81
2022/09/05 01:29:19;;;;;;;17.20;9.85;;;;;;;18.77;59.00;101755.66;5054626;28;20078;-80
2022/09/05 01:32:20;;;;;;;20.75;9.98;;;;;;;18.85;58.89;101756.47;5054030;28;20033;-81
2022/09/05 01:34:46;;;;;;;16.05;9.73;;;;;;;18.88;58.68;101759.09;5026190;28;20048;-80
2022/09/05 01:37:21;;;;;;;19.58;9.38;;;;;;;18.94;58.57;101753.72;5054135;28;20481;-81
2022/09/05 01:39:57;;;;;;;17.33;9.60;;;;;;;18.86;58.92;101755.56;5054135;28;20059;-81
2022/09/05 01:42:37;;;;;;;20.75;10.95;;;;;;;18.97;58.33;101755.44;5054339;28;20029;-81
2022/09/05 01:45:16;;;;;;;20.38;10.95;;;;;;;18.91;58.64;101756.41;5053760;28;20064;-81
2022/09/05 01:47:56;;;;;;;18.33;10.23;;;;;;;18.88;58.36;101756.44;5053753;28;20041;-81
2022/09/05 01:50:45;;;;;;;21.95;10.80;;;;;;;18.95;58.14;101744.75;5054029;28;20036;-82
2022/09/05 01:53:34;;;;;;;16.27;10.27;;;;;;;18.85;58.45;101744.88;5040516;28;20487;-81
2022/09/05 01:56:48;;;;;;;22.83;11.02;;;;;;;18.89;58.52;101750.19;5054104;28;20055;-80
2022/09/05 01:59:25;;;;;;;18.70;10.48;;;;;;;18.80;58.60;101752.03;5035879;28;20064;-81
2022/09/05 02:02:14;;;;;;;17.40;9.30;;;;;;;18.66;59.22;101747.66;5054005;28;20033;-80
2022/09/05 02:04:57;;;;;;;22.15;11.23;;;;;;;18.70;58.93;101749.44;5054034;28;20091;-80
2022/09/05 02:07:50;;;;;;;19.83;10.05;;;;;;;18.68;58.98;101751.22;5054027;28;20028;-80
2022/09/05 02:10:27;;;;;;;;;;;;;;;18.77;57.15;101755.66;5054142;28;20103;-80
2022/09/05 02:13:22;;;;;;;19.60;10.82;;;;;;;18.75;59.10;101744.06;5053552;28;19920;-80
2022/09/05 02:16:27;;;;;;;16.92;10.20;;;;;;;18.82;58.26;101751.13;5036343;28;20021;-80
2022/09/05 02:19:13;;;;;;;20.42;11.23;;;;;;;18.78;58.58;101754.75;5004323;28;20103;-80
2022/09/05 02:22:11;;;;;;;19.33;11.13;;;;;;;18.82;58.73;101759.19;5035990;28;20028;-80
2022/09/05 02:24:42;;;;;;;17.40;11.20;;;;;;;18.77;59.35;101756.53;5053889;28;20421;-80
2022/09/05 02:27:16;;;;;;;18.42;10.90;;;;;;;18.76;59.66;101761.91;5053574;28;20390;-80
2022/09/05 02:30:07;;;;;;;18.08;10.93;;;;;;;18.77;59.13;101761.91;5053992;28;20025;-80
2022/09/05 02:32:35;;;;;;;19.98;10.65;;;;;;;18.63;60.32;101761.09;5053501;28;20040;-80
2022/09/05 02:35:10;;;;;;;17.23;10.65;;;;;;;18.49;60.67;101762.97;5053134;28;20068;-80
2022/09/05 02:37:44;;;;;;;23.10;11.18;;;;;;;18.29;61.17;101765.81;5053335;28;20053;-81
2022/09/05 02:40:31;;;;;;;17.80;11.15;;;;;;;18.20;61.29;101774.78;5053918;28;20159;-80
2022/09/05 02:43:15;;;;;;;17.58;10.40;;;;;;;18.16;61.47;101767.66;5036140;28;20035;-81
2022/09/05 02:45:54;;;;;;;15.50;9.98;;;;;;;18.12;60.76;101755.19;5053627;28;20075;-80
2022/09/05 02:48:44;;;;;;;20.20;10.40;;;;;;;18.19;60.71;101770.28;5053846;28;20128;-81
2022/09/05 02:51:13;;;;;;;16.75;10.48;;;;;;;18.13;61.77;101767.66;5052969;28;20025;-81
2022/09/05 02:53:44;;;;;;;16.35;10.25;;;;;;;18.12;61.80;101765.00;5053206;28;20552;-81
2022/09/05 02:56:30;;;;;;;15.95;10.15;;;;;;;18.09;61.62;101771.25;5035135;28;20475;-80
2022/09/05 02:59:14;;;;;;;18.17;10.00;;;;;;;18.05;61.65;101774.84;5036811;28;20132;-81
2022/09/05 03:02:02;;;;;;;19.23;9.82;;;;;;;18.08;60.76;101766.81;5057204;28;20032;-83
2022/09/05 03:04:37;;;;;;;16.92;9.32;;;;;;;18.08;60.89;101773.94;5057158;28;20040;-81
2022/09/05 03:07:26;;;;;;;15.45;9.38;;;;;;;18.08;61.48;101769.50;5057004;28;20386;-81
2022/09/05 03:10:20;;;;;;;18.35;10.48;;;;;;;18.16;61.94;101766.78;5057559;28;20036;-81
2022/09/05 03:13:22;;;;;;;15.13;9.73;;;;;;;18.23;60.94;101769.38;5057542;28;20108;-81
2022/09/05 03:16:06;;;;;;;17.70;9.93;;;;;;;18.23;61.74;101769.38;5056650;28;20025;-81
2022/09/05 03:19:06;;;;;;;16.15;9.93;;;;;;;18.17;60.98;101766.75;5057415;28;20029;-80
2022/09/05 03:21:49;;;;;;;16.00;9.80;;;;;;;18.13;61.93;101775.69;5039372;28;20475;-82
2022/09/05 03:24:24;;;;;;;13.25;9.20;;;;;;;17.91;62.12;101772.25;5039693;28;20043;-81
2022/09/05 03:27:26;;;;;;;17.48;9.70;;;;;;;17.91;61.86;101771.38;5057004;28;20474;-81
2022/09/05 03:30:04;;;;;;;16.13;10.13;;;;;;;17.80;62.97;101773.19;5056757;28;20029;-81
2022/09/05 03:32:29;;;;;;;15.05;9.55;;;;;;;17.80;62.56;101770.50;5056633;28;20549;-81
2022/09/05 03:35:24;;;;;;;14.20;9.73;;;;;;;17.77;63.18;101775.00;5056848;28;20029;-81
2022/09/05 03:37:55;;;;;;;14.63;9.43;;;;;;;17.75;62.48;101774.09;5056860;28;20108;-81
2022/09/05 03:41:02;;;;;;;17.13;9.68;;;;;;;17.82;61.95;101763.38;5056285;28;20059;-81
2022/09/05 03:43:48;;;;;;;16.08;9.65;;;;;;;17.94;62.47;101771.31;5042160;28;20037;-81
2022/09/05 03:46:25;;;;;;;15.05;9.32;;;;;;;18.06;62.85;101765.03;5056657;28;20040;-81
2022/09/05 03:49:28;;;;;;;17.00;9.30;;;;;;;18.11;61.80;101765.88;5056280;28;20037;-81
2022/09/05 03:52:25;;;;;;;15.32;9.68;;;;;;;17.88;62.50;101766.91;5056240;28;20482;-81
2022/09/05 03:55:11;;;;;;;16.42;9.82;;;;;;;17.89;63.44;101765.13;5056604;28;20355;-81
2022/09/05 03:58:04;;;;;;;13.55;9.00;;;;;;;17.94;63.08;101768.66;5056749;28;20041;-81
2022/09/05 04:00:32;;;;;;;12.98;9.00;;;;;;;17.69;62.79;101762.53;5039064;28;20443;-81
2022/09/05 04:03:04;;;;;;;15.70;9.43;;;;;;;17.62;63.92;101766.97;5055990;28;20033;-81
2022/09/05 04:05:37;;;;;;;14.23;9.03;;;;;;;17.62;63.31;101763.44;5038674;28;20033;-81
2022/09/05 04:08:12;;;;;;;13.27;9.13;;;;;;;17.58;63.83;101767.88;5056294;28;20031;-81
2022/09/05 04:10:50;;;;;;;15.57;9.40;;;;;;;17.64;63.99;101769.63;5055588;28;20025;-81
2022/09/05 04:13:50;;;;;;;13.93;8.68;;;;;;;17.73;63.43;101770.50;5056179;28;20086;-81
2022/09/05 04:16:30;;;;;;;16.63;8.98;;;;;;;17.77;63.38;101783.00;5037796;28;20048;-81
2022/09/05 04:19:12;;;;;;;13.43;8.93;;;;;;;17.83;63.53;101776.75;5056145;28;20127;-81
2022/09/05 04:21:44;;;;;;;16.48;9.82;;;;;;;17.72;62.90;101782.06;5056083;28;20399;-81
2022/09/05 04:24:30;;;;;;;13.53;9.10;;;;;;;17.82;62.46;101779.44;5055697;28;20028;-81
2022/09/05 04:27:05;;;;;;;14.10;9.00;;;;;;;17.89;63.72;101776.69;5055733;28;20040;-81
2022/09/05 04:29:41;;;;;;;12.80;9.25;;;;;;;17.87;62.16;101778.50;5055485;28;20033;-81
2022/09/05 04:32:25;;;;;;;13.82;8.82;;;;;;;17.88;62.40;101780.28;5055771;28;20028;-81
2022/09/05 04:35:00;;;;;;;15.73;8.77;;;;;;;17.86;62.17;101775.81;5055723;28;20041;-81
2022/09/05 04:37:45;;;;;;;12.95;8.90;;;;;;;17.86;63.65;101782.09;5037387;28;20035;-81
2022/09/05 04:40:29;;;;;;;13.23;9.27;;;;;;;17.88;63.23;101785.63;5055623;28;20128;-81
2022/09/05 04:42:59;;;;;;;19.25;9.13;;;;;;;17.80;64.10;101776.75;5054871;28;20463;-81
2022/09/05 04:45:29;;;;;;;18.70;9.52;;;;;;;17.78;64.27;101781.22;5055246;28;20490;-81
2022/09/05 04:48:00;;;;;;;15.23;8.70;;;;;;;17.74;64.44;101777.66;5037462;28;20421;-81
2022/09/05 04:50:28;;;;;;;19.42;9.73;;;;;;;17.71;64.82;101780.31;5055708;28;20471;-81
2022/09/05 04:52:54;;;;;;;11.45;8.55;;;;;;;17.67;63.71;101785.69;5037866;28;20044;-81
2022/09/05 04:55:25;;;;;;;13.45;8.35;;;;;;;17.59;63.67;101779.47;5054758;28;20045;-81
2022/09/05 04:57:53;;;;;;;12.93;8.70;;;;;;;17.63;64.70;101776.78;5054926;28;20063;-81
2022/09/05 05:00:56;;;;;;;15.07;8.52;;;;;;;17.70;64.08;101777.66;5054645;28;20082;-81
2022/09/05 05:03:28;;;;;;;11.63;8.52;;;;;;;17.66;64.77;101775.88;5055153;28;20064;-81
2022/09/05 05:06:02;;;;;;;12.25;9.00;;;;;;;17.69;64.62;101787.47;5054907;28;20375;-81
2022/09/05 05:08:39;;;;;;;14.30;8.43;;;;;;;17.64;63.51;101785.69;5055609;28;20052;-81
2022/09/05 05:11:14;;;;;;;13.52;8.55;;;;;;;17.64;63.24;101793.69;5054815;28;20471;-81
2022/09/05 05:14:02;;;;;;;14.80;8.65;;;;;;;17.37;64.21;101800.91;5054465;28;20410;-81
2022/09/05 05:16:37;;;;;;;12.00;8.70;;;;;;;17.25;64.69;101809.81;5054540;28;20106;-81
2022/09/05 05:19:23;;;;;;;13.10;8.82;;;;;;;17.37;64.11;101800.00;5037369;28;20028;-81
2022/09/05 05:21:57;;;;;;;13.35;9.13;;;;;;;17.42;64.91;101800.88;5053554;28;20071;-81
2022/09/05 05:24:28;;;;;;;12.80;9.07;;;;;;;17.40;64.59;101795.56;5054631;28;20462;-81
2022/09/05 05:27:06;;;;;;;15.32;9.23;;;;;;;17.36;64.19;101799.13;5054599;28;20033;-81
2022/09/05 05:29:34;;;;;;;15.65;9.00;;;;;;;17.38;64.94;101802.66;5055102;28;20458;-81
2022/09/05 05:32:02;;;;;;;12.27;8.45;;;;;;;17.46;64.99;101799.97;5054458;28;20621;-81
2022/09/05 05:34:45;;;;;;;13.25;8.45;;;;;;;17.47;64.60;101805.34;5054358;28;20029;-81
2022/09/05 05:37:13;;;;;;;12.63;8.98;;;;;;;17.48;64.75;101803.56;5054443;28;20033;-81
2022/09/05 05:39:45;;;;;;;13.95;9.10;;;;;;;17.52;64.25;101800.88;5054546;28;20033;-81
2022/09/05 05:42:24;;;;;;;11.00;8.50;;;;;;;17.51;64.10;101796.44;5054841;28;20028;-81
2022/09/05 05:44:56;;;;;;;15.43;9.40;;;;;;;17.70;64.24;101799.03;5054256;28;20036;-81
2022/09/05 05:47:41;;;;;;;12.68;9.02;;;;;;;17.88;63.76;101804.34;5054169;28;20079;-81
2022/09/05 05:50:25;;;;;;;13.68;9.30;;;;;;;18.00;63.61;101803.41;5036464;28;20029;-81
2022/09/05 05:53:16;;;;;;;13.70;8.95;;;;;;;18.21;62.70;101807.75;5054363;28;20041;-81
2022/09/05 05:56:10;;;;;;;14.15;8.90;;;;;;;18.31;62.71;101804.13;5049500;28;20060;-81
2022/09/05 05:59:03;;;;;;;14.80;8.98;;;;;;;18.58;62.42;101812.88;5054278;28;20486;-81
2022/09/05 06:01:35;;;;;;;18.15;9.68;;;;;;;18.73;62.14;101818.16;5036227;28;20049;-82
2022/09/05 06:04:19;;;;;;;14.15;9.45;;;;;;;18.97;61.76;101826.03;5053804;28;20039;-81
2022/09/05 06:07:08;;;;;;;18.58;10.02;;;;;;;19.17;61.16;101817.78;5053728;28;20458;-82
2022/09/05 06:09:43;;;;;;;15.60;9.55;;;;;;;19.36;60.62;101820.31;5053825;28;20509;-81
2022/09/05 06:12:15;;;;;;;17.95;10.40;;;;;;;19.48;59.92;101814.78;5053838;28;20052;-82
2022/09/05 06:14:47;;;;;;;;;;;;;;;19.68;59.35;101819.97;5054099;28;20167;-82
2022/09/05 06:17:54;;;;;;;16.05;9.57;;;;;;;19.75;59.34;101825.25;5053600;28;20385;-82
2022/09/05 06:20:22;;;;;;;17.08;9.93;;;;;;;19.82;58.90;101823.38;5053567;28;20120;-82
2022/09/05 06:22:53;;;;;;;12.85;9.98;;;;;;;19.92;59.38;101821.50;5053960;28;20068;-81
2022/09/05 06:25:54;;;;;;;11.90;10.32;;;;;;;20.07;59.61;101826.66;5053523;28;20033;-81
2022/09/05 06:28:26;;;;;;;14.38;10.10;;;;;;;20.29;58.33;101829.06;5008834;28;20051;-81
2022/09/05 06:31:10;;;;;;;15.02;10.05;;;;;;;20.43;58.11;101836.03;5053797;28;20079;-82
2022/09/05 06:33:57;;;;;;;14.43;9.85;;;;;;;20.71;57.91;101830.25;5053621;28;20029;-82
2022/09/05 06:36:43;;;;;;;16.20;9.70;;;;;;;20.85;57.76;101821.97;5035351;28;20024;-82
2022/09/05 06:39:22;;;;;;;13.85;10.43;;;;;;;21.09;56.91;101826.94;5053785;28;20021;-82
2022/09/05 06:42:05;;;;;;;13.50;9.80;;;;;;;21.27;56.35;101825.72;5053532;28;20481;-82
2022/09/05 06:44:59;;;;;;;17.65;10.00;;;;;;;21.41;56.11;101828.19;5053611;28;20421;-82
2022/09/05 06:47:26;;;;;;;17.83;10.23;;;;;;;21.50;55.43;101823.56;5053445;28;20037;-82
2022/09/05 06:50:10;;;;;;;17.40;10.13;;;;;;;21.74;54.85;101829.34;5053950;28;20037;-83
2022/09/05 06:53:13;;;;;;;14.65;10.25;;;;;;;21.96;54.66;101830.69;5053380;28;20475;-82
2022/09/05 06:56:00;;;;;;;14.65;9.93;;;;;;;22.15;53.44;101824.97;5053236;28;20045;-84
2022/09/05 06:58:56;;;;;;;11.98;9.52;;;;;;;22.24;53.42;101835.53;5053595;28;20473;-82
2022/09/05 07:01:28;;;;;;;18.42;10.27;;;;;;;22.43;52.68;101822.53;5053614;28;20072;-79
2022/09/05 07:04:19;;;;;;;12.48;9.95;;;;;;;22.61;52.99;101823.91;5053401;28;20120;-80
2022/09/05 07:07:17;;;;;;;18.42;9.43;;;;;;;22.66;51.44;101825.59;5053743;28;20066;-79
2022/09/05 07:09:42;;;;;;;13.32;9.63;;;;;;;22.67;51.49;101830.06;5053409;28;20596;-80
2022/09/05 07:12:19;;;;;;;17.77;9.13;;;;;;;22.67;51.63;101832.75;5053163;28;20108;-80
2022/09/05 07:15:07;;;;;;;12.98;9.68;;;;;;;22.85;50.94;101825.13;5035285;28;20025;-80
2022/09/05 07:18:02;;;;;;;18.90;9.48;;;;;;;23.00;51.08;101832.88;5053439;28;20036;-82
2022/09/05 07:20:37;;;;;;;16.45;9.07;;;;;;;23.12;50.43;101834.38;5053930;28;20036;-83
2022/09/05 07:23:27;;;;;;;16.23;9.90;;;;;;;23.38;50.62;101842.69;5052963;28;20075;-82
2022/09/05 07:25:54;;;;;;;18.45;9.20;;;;;;;23.60;50.13;101842.09;5053026;28;20033;-84
2022/09/05 07:28:21;;;;;;;14.52;9.00;;;;;;;23.73;48.46;101830.06;5052885;28;20044;-83
2022/09/05 07:30:55;;;;;;;16.17;8.88;;;;;;;23.78;48.26;101840.72;5035822;28;20036;-76
2022/09/05 07:33:26;;;;;;;17.73;9.40;;;;;;;23.87;48.02;101829.66;5053352;28;20060;-76
2022/09/05 07:35:57;;;;;;;15.05;9.23;;;;;;;24.04;47.74;101832.75;5053509;28;20147;-84
2022/09/05 07:38:27;;;;;;;16.05;8.52;;;;;;;24.27;47.60;101841.97;5053256;28;20032;-84
2022/09/05 07:41:04;;;;;;;11.98;8.77;;;;;;;24.60;46.67;101838.25;5053766;28;20040;-84
2022/09/05 07:43:38;;;;;;;12.63;8.77;;;;;;;24.66;45.76;101850.69;5053130;28;20488;-83
2022/09/05 07:46:15;;;;;;;14.35;8.80;;;;;;;24.61;45.78;101849.94;5055551;28;20032;-84
2022/09/05 07:48:52;;;;;;;16.23;8.63;;;;;;;24.61;45.72;101848.13;5056509;28;20028;-84
2022/09/05 07:51:26;;;;;;;14.30;8.10;;;;;;;24.66;45.26;101846.16;5056459;28;20037;-83
2022/09/05 07:53:59;;;;;;;13.32;8.18;;;;;;;24.70;44.98;101855.94;5056434;28;20037;-83
2022/09/05 07:56:51;;;;;;;17.25;8.05;;;;;;;24.77;44.92;101847.66;5034896;28;20080;-85
2022/09/05 07:59:18;;;;;;;13.48;7.20;;;;;;;24.95;44.02;101860.56;5036363;28;20040;-84
2022/09/05 08:01:46;;;;;;;12.13;7.35;;;;;;;25.04;43.97;101862.06;5034845;28;20492;-85
2022/09/05 08:04:26;;;;;;;11.07;7.40;;;;;;;25.35;43.97;101857.44;5036743;28;20072;-84
2022/09/05 08:06:54;;;;;;;10.50;5.95;;;;;;;25.56;42.22;101854.88;5035253;28;20036;-85
2022/09/05 08:09:32;;;;;;;11.40;6.60;;;;;;;25.83;42.66;101855.78;5036876;28;20143;-83
2022/09/05 08:12:02;;;;;;;10.27;6.43;;;;;;;25.99;41.38;101859.66;5036647;28;20033;-84
2022/09/05 08:14:53;;;;;;;17.33;6.32;;;;;;;26.23;40.73;101860.56;5035975;28;20036;-83
2022/09/05 08:17:22;;;;;;;10.73;5.90;;;;;;;26.63;40.08;101859.88;5012474;28;20069;-83
2022/09/05 08:20:19;;;;;;;13.25;5.63;;;;;;;26.81;40.76;101855.56;5035938;28;20112;-83
2022/09/05 08:22:57;;;;;;;11.52;5.25;;;;;;;27.01;39.02;101848.41;5035815;28;20021;-83
2022/09/05 08:25:30;;;;;;;11.48;5.70;;;;;;;26.99;39.24;101851.22;5034519;28;20072;-83
2022/09/05 08:28:24;;;;;;;12.35;5.07;;;;;;;27.37;38.48;101852.31;5036028;28;20041;-83
2022/09/05 08:31:04;;;;;;;11.15;4.32;;;;;;;27.59;38.89;101854.09;5036204;28;20037;-83
2022/09/05 08:33:33;;;;;;;8.65;4.22;;;;;;;27.82;36.98;101853.09;5036192;28;20583;-82
2022/09/05 08:36:13;;;;;;;9.98;4.03;;;;;;;27.99;37.89;101847.75;5035837;28;20034;-82
2022/09/05 08:38:42;;;;;;;12.27;4.40;;;;;;;28.06;37.00;101851.09;5034293;28;20029;-83
2022/09/05 08:41:17;;;;;;;10.25;5.00;;;;;;;27.83;37.05;101842.13;5036089;28;20408;-83
2022/09/05 08:44:00;;;;;;;8.63;4.30;;;;;;;27.90;37.68;101848.19;5036128;28;20026;-78
2022/09/05 08:46:33;;;;;;;11.88;4.85;;;;;;;28.12;37.65;101848.94;5034913;28;20041;-79
2022/09/05 08:49:01;;;;;;;10.65;5.30;;;;;;;28.46;36.54;101850.09;5035447;28;20033;-79
2022/09/05 08:51:35;;;;;;;10.45;4.50;;;;;;;28.86;36.67;101851.72;5035509;28;20026;-82
2022/09/05 08:54:36;;;;;;;14.02;4.63;;;;;;;29.10;35.75;101849.66;5035203;28;20044;-83
2022/09/05 08:57:51;;;;;;;6.32;4.22;;;;;;;29.14;36.45;101839.50;5052173;28;20056;-83
2022/09/05 09:00:19;;;;;;;9.48;3.60;;;;;;;29.55;34.38;101837.34;5000125;28;20135;-84
2022/09/05 09:03:15;;;;;;;7.50;3.20;;;;;;;30.10;33.99;101838.94;5020505;28;20033;-82
2022/09/05 09:05:58;;;;;;;8.38;3.30;;;;;;;29.99;32.58;101839.53;5037274;28;20029;-83
2022/09/05 09:08:56;;;;;;;8.68;3.40;;;;;;;29.97;33.38;101833.28;5054859;28;20112;-80
2022/09/05 09:11:31;;;;;;;10.55;3.80;;;;;;;29.92;31.90;101822.63;5026225;28;20104;-80
2022/09/05 09:14:24;;;;;;;9.98;3.72;;;;;;;30.12;33.09;101824.25;5054683;28;20492;-80
2022/09/05 09:17:06;;;;;;;14.90;3.40;;;;;;;30.37;32.87;101828.38;5054469;28;20463;-80
2022/09/05 09:19:45;;;;;;;;;;;;;;;30.76;31.58;101821.63;5055087;28;20033;-81
2022/09/05 09:22:19;;;;;;;9.05;2.60;;;;;;;30.79;30.14;101829.59;5036600;28;19913;-83
2022/09/05 09:24:56;;;;;;;5.60;2.60;;;;;;;30.68;30.21;101816.56;5054642;28;20033;-81
2022/09/05 09:28:00;;;;;;;9.52;2.50;;;;;;;30.62;30.39;101814.19;5055041;28;20024;-86
2022/09/05 09:30:29;;;;;;;9.23;2.88;;;;;;;30.48;30.53;101811.38;5016236;28;20098;-87
2022/09/05 09:33:00;;;;;;;7.13;2.65;;;;;;;30.49;29.81;101813.13;5054432;28;20035;-90
2022/09/05 09:35:35;;;;;;;9.68;2.60;;;;;;;30.73;30.08;101814.47;5055094;28;20025;-86
2022/09/05 09:38:21;;;;;;;7.35;2.50;;;;;;;30.92;28.91;101801.53;5054157;28;20487;-85
2022/09/05 09:41:08;;;;;;;6.22;3.13;;;;;;;31.29;28.53;101803.91;5054560;28;20036;-86
2022/09/05 09:43:56;;;;;;;10.55;2.60;;;;;;;31.54;28.97;101800.53;5054572;28;20064;-88
2022/09/05 09:46:33;;;;;;;8.52;2.80;;;;;;;31.46;28.23;101803.72;5054569;28;20037;-88
2022/09/05 09:49:07;;;;;;;8.70;2.40;;;;;;;31.30;27.42;101800.19;5054135;28;20029;-89
2022/09/05 09:51:51;;;;;;;6.78;2.80;;;;;;;31.39;28.53;101796.88;5054412;28;20478;-83
2022/09/05 09:54:33;;;;;;;5.97;2.30;;;;;;;31.86;26.54;101798.50;5054304;28;20446;-88
2022/09/05 09:57:23;;;;;;;9.73;2.55;;;;;;;32.19;26.62;101798.19;5054314;28;20040;-87
2022/09/05 10:00:20;;;;;;;7.55;2.38;;;;;;;32.42;25.90;101802.22;5053619;28;20033;-86
2022/09/05 10:03:18;;;;;;;6.25;2.40;;;;;;;32.34;25.50;101793.59;5054000;28;20032;-87
2022/09/05 10:05:56;;;;;;;5.47;2.20;;;;;;;32.77;24.20;101791.63;5053854;28;20406;-90
2022/09/05 10:08:37;;;;;;;8.93;2.15;;;;;;;32.75;24.72;101785.38;5053722;28;20041;-90
2022/09/05 10:11:08;;;;;;;8.65;2.20;;;;;;;33.05;24.61;101784.28;5054591;28;20336;-89
2022/09/05 10:13:53;;;;;;;9.20;2.38;;;;;;;32.98;24.06;101783.84;5054299;28;20127;-85
2022/09/05 10:16:43;;;;;;;6.40;2.17;;;;;;;33.11;23.94;101776.53;5054233;28;20082;-90
2022/09/05 10:19:50;;;;;;;10.07;2.20;;;;;;;32.83;24.10;101771.16;5054469;28;20060;-85
2022/09/05 10:22:42;;;;;;;7.05;2.28;;;;;;;32.78;24.39;101766.00;5044010;28;20044;-88
2022/09/05 10:25:32;;;;;;;5.60;2.00;;;;;;;33.20;23.25;101776.88;5053647;28;20056;-83
2022/09/05 10:28:04;;;;;;;4.47;2.10;;;;;;;33.17;22.76;101771.63;5054058;28;20028;-86
2022/09/05 10:31:07;;;;;;;5.40;2.00;;;;;;;33.17;23.03;101764.25;5053814;28;20167;-90
2022/09/05 10:33:37;;;;;;;;;;;;;;;33.51;22.81;101770.13;5054505;28;20501;-77
2022/09/05 10:36:14;;;;;;;6.80;2.20;;;;;;;33.11;22.81;101761.97;5053427;28;19912;-81
2022/09/05 10:38:45;;;;;;;4.07;2.00;;;;;;;32.75;22.83;101763.47;5053611;28;20482;-81
2022/09/05 10:41:15;;;;;;;3.47;2.10;;;;;;;32.71;23.13;101756.44;5053444;28;20471;-83
2022/09/05 10:43:51;;;;;;;4.53;2.00;;;;;;;32.98;23.53;101755.59;5036506;28;20413;-82
2022/09/05 10:46:32;;;;;;;4.70;2.05;;;;;;;32.82;23.27;101745.66;5059140;28;20075;-83
2022/09/05 10:49:07;;;;;;;4.20;2.20;;;;;;;32.60;23.54;101750.84;5057311;28;20163;-83
2022/09/05 10:51:36;;;;;;;7.05;2.10;;;;;;;32.52;23.33;101754.09;5059365;28;20064;-82
2022/09/05 10:54:32;;;;;;;3.55;2.00;;;;;;;32.72;23.24;101752.75;5053518;28;20036;-83
2022/09/05 10:57:15;;;;;;;5.50;2.03;;;;;;;32.96;23.31;101741.13;5053897;28;20049;-80
2022/09/05 11:00:08;;;;;;;4.72;2.05;;;;;;;33.04;23.04;101742.34;5053269;28;20043;-84
2022/09/05 11:02:40;;;;;;;7.82;2.13;;;;;;;33.77;21.38;101743.59;5049292;28;20064;-83
2022/09/05 11:05:20;;;;;;;4.72;1.90;;;;;;;34.17;21.24;101744.28;5053229;28;20037;-83
2022/09/05 11:08:11;;;;;;;6.18;1.90;;;;;;;34.59;21.14;101737.44;5053438;28;20028;-84
2022/09/05 11:11:00;;;;;;;3.33;2.00;;;;;;;34.58;20.88;101730.22;5054448;28;20036;-83
2022/09/05 11:13:44;;;;;;;4.35;2.00;;;;;;;34.62;20.78;101728.97;5054296;28;20036;-83
2022/09/05 11:16:44;;;;;;;3.80;2.00;;;;;;;34.27;21.32;101733.50;5054005;28;20072;-83
2022/09/05 11:19:25;;;;;;;4.70;2.00;;;;;;;34.05;20.77;101731.50;5036510;28;20113;-83
2022/09/05 11:22:00;;;;;;;5.60;2.13;;;;;;;33.77;21.99;101730.75;5057735;28;20032;-83
2022/09/05 11:24:56;;;;;;;5.35;2.10;;;;;;;33.50;22.28;101722.69;5057234;28;20111;-83
2022/09/05 11:27:34;;;;;;;3.88;2.10;;;;;;;33.32;22.24;101723.94;5056796;28;20761;-83
2022/09/05 11:30:12;;;;;;;4.55;1.98;;;;;;;33.48;22.54;101724.63;5039501;28;20107;-84
2022/09/05 11:33:06;;;;;;;5.53;2.10;;;;;;;33.97;22.04;101721.09;5039179;28;20036;-84
2022/09/05 11:35:38;;;;;;;2.97;1.95;;;;;;;33.97;21.25;101731.19;5056963;28;20033;-84
2022/09/05 11:38:21;;;;;;;2.70;1.83;;;;;;;34.02;21.71;101718.88;5056639;28;20029;-84
2022/09/05 11:41:12;;;;;;;4.32;2.10;;;;;;;34.41;21.12;101719.59;5056654;28;20104;-84
2022/09/05 11:43:37;;;;;;;5.43;2.20;;;;;;;34.72;20.45;101717.28;5056802;28;20467;-84
2022/09/05 11:46:08;;;;;;;7.10;2.00;;;;;;;34.86;21.06;101712.47;5056844;28;20112;-84
2022/09/05 11:48:43;;;;;;;4.68;2.22;;;;;;;34.80;21.02;101717.56;5056191;28;20340;-84
2022/09/05 11:51:35;;;;;;;4.53;1.92;;;;;;;34.59;21.11;101706.38;5056381;28;20462;-84
2022/09/05 11:54:21;;;;;;;4.70;2.15;;;;;;;34.93;20.41;101707.38;5056086;28;20111;-84
2022/09/05 11:56:58;;;;;;;4.45;2.10;;;;;;;35.45;20.65;101705.97;5055783;28;20047;-84
2022/09/05 11:59:59;;;;;;;6.60;1.95;;;;;;;35.85;20.07;101708.28;5056529;28;20032;-83
2022/09/05 12:02:31;;;;;;;3.50;2.00;;;;;;;35.69;19.58;101707.78;5056175;28;20055;-83
2022/09/05 12:05:12;;;;;;;3.58;2.10;;;;;;;35.84;19.97;101706.50;5056323;28;20029;-83
2022/09/05 12:07:56;;;;;;;7.25;2.10;;;;;;;35.69;19.32;101707.78;5056120;28;20029;-84
2022/09/05 12:10:21;;;;;;;6.65;2.05;;;;;;;36.13;18.75;101693.09;5056680;28;20055;-85
2022/09/05 12:13:12;;;;;;;4.80;1.90;;;;;;;36.72;18.61;101703.69;5056110;28;20486;-84
2022/09/05 12:15:43;;;;;;;3.28;2.05;;;;;;;36.31;18.64;101696.19;5042132;28;20283;-83
2022/09/05 12:18:18;;;;;;;4.63;1.95;;;;;;;35.87;18.97;101692.50;5056359;28;20025;-83
2022/09/05 12:20:55;;;;;;;8.77;2.20;;;;;;;35.72;19.44;101686.41;5056131;28;20028;-83
2022/09/05 12:23:21;;;;;;;3.42;2.10;;;;;;;35.54;19.54;101685.16;5055683;28;20146;-83
2022/09/05 12:26:08;;;;;;;12.80;3.93;;;;;;;35.45;20.10;101694.97;5055444;28;20033;-83